createdAt,value
2023-02-22T00:02:25.123Z,40.70
2023-02-22T00:04:52.371Z,39.70
2023-02-22T00:07:21.329Z,40.30
2023-02-22T00:09:49.488Z,38.63
2023-02-22T00:12:16.560Z,39.93
2023-02-22T00:14:43.735Z,40.03
2023-02-22T00:17:13.442Z,39.00
2023-02-22T00:19:40.619Z,36.37
2023-02-22T00:22:07.885Z,39.20
2023-02-22T00:24:36.080Z,39.57
2023-02-22T00:27:03.508Z,39.57
2023-02-22T00:29:30.624Z,39.87
2023-02-22T00:31:57.953Z,39.43
2023-02-22T00:34:25.183Z,36.43
2023-02-22T00:36:52.266Z,38.73
2023-02-22T00:39:19.462Z,38.40
2023-02-22T00:41:46.647Z,39.57
2023-02-22T00:44:13.874Z,38.67
2023-02-22T00:46:41.090Z,39.93
2023-02-22T00:49:08.198Z,38.57
2023-02-22T00:51:35.302Z,37.10
2023-02-22T00:54:02.458Z,36.97
2023-02-22T00:56:29.526Z,37.23
2023-02-22T00:58:56.605Z,35.20
2023-02-22T01:01:24.230Z,37.83
2023-02-22T01:03:51.395Z,37.93
2023-02-22T01:06:18.730Z,38.23
2023-02-22T01:08:48.773Z,37.60
2023-02-22T01:11:17.492Z,35.47
2023-02-22T01:13:46.976Z,36.83
2023-02-22T01:16:14.298Z,35.03
2023-02-22T01:18:41.419Z,36.83
2023-02-22T01:21:10.601Z,36.47
2023-02-22T01:23:37.675Z,37.03
2023-02-22T01:26:06.050Z,38.63
2023-02-22T01:28:35.619Z,37.47
2023-02-22T01:31:03.133Z,35.23
2023-02-22T01:33:30.393Z,34.87
2023-02-22T01:36:00.795Z,36.13
2023-02-22T01:38:27.867Z,35.50
2023-02-22T01:40:54.969Z,33.43
2023-02-22T01:43:26.630Z,33.40
2023-02-22T01:46:14.657Z,34.00
2023-02-22T01:48:44.421Z,33.03
2023-02-22T01:51:30.557Z,32.93
2023-02-22T01:54:00.597Z,33.27
2023-02-22T01:56:31.072Z,33.03
2023-02-22T01:58:59.955Z,32.87
2023-02-22T02:01:27.332Z,32.80
2023-02-22T02:03:58.233Z,36.03
2023-02-22T02:06:27.808Z,33.27
2023-02-22T02:08:59.572Z,34.23
2023-02-22T02:11:27.158Z,34.80
2023-02-22T02:13:57.418Z,33.50
2023-02-22T02:16:25.906Z,32.83
2023-02-22T02:18:53.255Z,32.50
2023-02-22T02:21:39.956Z,31.87
2023-02-22T02:24:20.059Z,33.70
2023-02-22T02:27:06.398Z,34.87
2023-02-22T02:29:58.863Z,34.80
2023-02-22T02:32:45.006Z,34.97
2023-02-22T02:35:12.080Z,32.73
2023-02-22T02:37:47.637Z,33.83
2023-02-22T02:40:24.991Z,32.83
2023-02-22T02:42:55.205Z,34.23
2023-02-22T02:45:25.338Z,33.27
2023-02-22T02:47:58.785Z,31.37
2023-02-22T02:50:28.739Z,31.53
2023-02-22T02:52:59.571Z,33.37
2023-02-22T02:55:27.865Z,30.17
2023-02-22T02:57:57.062Z,37.07
2023-02-22T03:00:28.111Z,30.73
2023-02-22T03:03:19.888Z,31.13
2023-02-22T03:06:07.469Z,29.80
2023-02-22T03:08:50.392Z,31.80
2023-02-22T03:11:19.957Z,31.60
2023-02-22T03:14:08.153Z,34.90
2023-02-22T03:16:35.302Z,32.23
2023-02-22T03:19:09.792Z,30.33
2023-02-22T03:21:58.144Z,31.63
2023-02-22T03:24:31.681Z,31.13
2023-02-22T03:27:11.526Z,33.03
2023-02-22T03:29:40.632Z,32.63
2023-02-22T03:32:10.777Z,30.97
2023-02-22T03:34:48.159Z,29.90
2023-02-22T03:37:17.481Z,30.37
2023-02-22T03:39:45.407Z,29.93
2023-02-22T03:42:18.560Z,28.33
2023-02-22T03:44:48.635Z,29.20
2023-02-22T03:47:18.620Z,28.50
2023-02-22T03:49:45.645Z,30.13
2023-02-22T03:52:14.690Z,30.30
2023-02-22T03:54:41.999Z,31.23
2023-02-22T03:57:12.754Z,34.50
2023-02-22T03:59:40.227Z,29.87
2023-02-22T04:02:09.326Z,29.43
2023-02-22T04:04:36.461Z,30.33
2023-02-22T04:07:03.542Z,27.13
2023-02-22T04:09:30.707Z,27.90
2023-02-22T04:11:59.613Z,26.93
2023-02-22T04:14:29.264Z,27.50
2023-02-22T04:16:56.820Z,28.53
2023-02-22T04:19:25.703Z,28.07
2023-02-22T04:21:52.781Z,27.53
2023-02-22T04:24:19.863Z,28.20
2023-02-22T04:26:49.906Z,29.47
2023-02-22T04:29:17.039Z,24.67
2023-02-22T04:31:44.230Z,27.00
2023-02-22T04:34:11.432Z,27.37
2023-02-22T04:36:38.483Z,27.87
2023-02-22T04:39:05.604Z,28.27
2023-02-22T04:41:34.531Z,27.03
2023-02-22T04:44:01.665Z,28.10
2023-02-22T04:46:28.997Z,25.13
2023-02-22T04:48:57.599Z,25.90
2023-02-22T04:51:24.975Z,24.50
2023-02-22T04:53:52.068Z,23.53
2023-02-22T04:56:21.467Z,25.00
2023-02-22T04:58:48.545Z,22.70
2023-02-22T05:01:16.951Z,22.57
2023-02-22T05:03:46.882Z,22.97
2023-02-22T05:06:14.019Z,22.60
2023-02-22T05:08:41.117Z,22.80
2023-02-22T05:11:10.042Z,21.67
2023-02-22T05:13:37.128Z,22.50
2023-02-22T05:16:06.125Z,21.47
2023-02-22T05:18:33.213Z,23.27
2023-02-22T05:21:00.310Z,22.50
2023-02-22T05:23:29.427Z,21.83
2023-02-22T05:25:56.538Z,22.07
2023-02-22T05:28:23.620Z,23.17
2023-02-22T05:30:50.719Z,22.90
2023-02-22T05:33:19.728Z,23.00
2023-02-22T05:35:46.809Z,19.97
2023-02-22T05:38:15.025Z,21.73
2023-02-22T05:40:42.819Z,20.07
2023-02-22T05:43:12.048Z,21.27
2023-02-22T05:45:39.110Z,22.23
2023-02-22T05:48:06.327Z,20.97
2023-02-22T05:50:35.607Z,21.30
2023-02-22T05:53:02.686Z,21.23
2023-02-22T05:55:29.825Z,23.47
2023-02-22T05:57:56.886Z,22.40
2023-02-22T06:00:27.754Z,20.33
2023-02-22T06:02:58.548Z,19.83
2023-02-22T06:05:25.812Z,20.77
2023-02-22T06:07:54.993Z,21.00
2023-02-22T06:10:22.248Z,20.23
2023-02-22T06:12:49.535Z,22.17
2023-02-22T06:15:19.022Z,22.17
2023-02-22T06:17:46.095Z,21.17
2023-02-22T06:20:14.828Z,20.77
2023-02-22T06:22:45.526Z,22.17
2023-02-22T06:25:15.252Z,22.30
2023-02-22T06:27:44.228Z,21.17
2023-02-22T06:30:13.433Z,22.07
2023-02-22T06:32:42.667Z,22.07
2023-02-22T06:35:10.029Z,20.50
2023-02-22T06:37:38.561Z,18.83
2023-02-22T06:40:06.005Z,21.53
2023-02-22T06:42:35.192Z,19.43
2023-02-22T06:45:02.385Z,19.50
2023-02-22T06:47:29.535Z,18.47
2023-02-22T06:49:59.448Z,19.90
2023-02-22T06:52:26.562Z,18.40
2023-02-22T06:54:53.647Z,18.60
2023-02-22T06:57:22.827Z,17.43
2023-02-22T06:59:50.012Z,19.43
2023-02-22T07:02:19.055Z,19.77
2023-02-22T07:04:46.180Z,19.33
2023-02-22T07:07:15.494Z,19.00
2023-02-22T07:09:44.790Z,18.00
2023-02-22T07:12:14.711Z,16.80
2023-02-22T07:14:41.850Z,15.47
2023-02-22T07:17:11.613Z,16.03
2023-02-22T07:19:38.716Z,15.57
2023-02-22T07:22:07.878Z,16.47
2023-02-22T07:24:35.122Z,15.03
2023-02-22T07:27:04.692Z,17.40
2023-02-22T07:29:31.955Z,16.60
2023-02-22T07:31:59.275Z,16.40
2023-02-22T07:34:28.676Z,15.70
2023-02-22T07:36:55.760Z,17.10
2023-02-22T07:39:22.798Z,14.50
2023-02-22T07:41:52.041Z,15.33
2023-02-22T07:44:19.122Z,16.37
2023-02-22T07:46:50.320Z,15.53
2023-02-22T07:49:19.988Z,14.30
2023-02-22T07:51:47.156Z,14.77
2023-02-22T07:54:16.318Z,13.60
2023-02-22T07:56:47.348Z,14.03
2023-02-22T07:59:17.071Z,13.93
2023-02-22T08:01:44.219Z,13.47
2023-02-22T08:04:13.463Z,14.40
2023-02-22T08:06:40.583Z,14.40
2023-02-22T08:09:09.760Z,14.13
2023-02-22T08:11:36.829Z,13.33
2023-02-22T08:14:06.168Z,14.37
2023-02-22T08:16:34.327Z,13.73
2023-02-22T08:19:03.557Z,16.10
2023-02-22T08:21:30.634Z,13.73
2023-02-22T08:23:59.852Z,13.13
2023-02-22T08:26:26.969Z,12.97
2023-02-22T08:28:56.925Z,11.47
2023-02-22T08:31:24.096Z,13.07
2023-02-22T08:33:53.358Z,11.27
2023-02-22T08:36:21.162Z,11.37
2023-02-22T08:38:50.393Z,10.57
2023-02-22T08:41:17.896Z,13.17
2023-02-22T08:43:47.492Z,12.03
2023-02-22T08:46:14.580Z,11.37
2023-02-22T08:48:52.247Z,12.17
2023-02-22T08:51:19.619Z,12.90
2023-02-22T08:53:48.986Z,12.20
2023-02-22T08:56:16.078Z,12.27
2023-02-22T08:58:45.371Z,12.13
2023-02-22T09:01:14.048Z,12.23
2023-02-22T09:03:44.888Z,13.30
2023-02-22T09:06:12.016Z,14.10
2023-02-22T09:08:41.369Z,20.93
2023-02-22T09:11:08.625Z,13.53
2023-02-22T09:13:38.032Z,13.40
2023-02-22T09:16:05.240Z,11.37
2023-02-22T09:18:43.809Z,11.27
2023-02-22T09:21:12.210Z,11.73
2023-02-22T09:23:41.607Z,11.50
2023-02-22T09:26:09.258Z,12.57
2023-02-22T09:28:38.658Z,11.40
2023-02-22T09:31:05.836Z,11.77
2023-02-22T09:33:35.187Z,12.10
2023-02-22T09:36:02.660Z,11.70
2023-02-22T09:38:32.683Z,11.80
2023-02-22T09:41:12.314Z,11.57
2023-02-22T09:43:41.680Z,11.47
2023-02-22T09:46:34.671Z,12.47
2023-02-22T09:49:14.968Z,11.57
2023-02-22T09:51:44.024Z,11.60
2023-02-22T09:54:17.579Z,12.00
2023-02-22T09:56:46.798Z,11.40
2023-02-22T09:59:18.812Z,11.00
2023-02-22T10:01:48.547Z,12.00
2023-02-22T10:04:37.579Z,11.77
2023-02-22T10:07:07.426Z,11.57
2023-02-22T10:09:42.523Z,11.93
2023-02-22T10:12:20.684Z,11.93
2023-02-22T10:14:55.477Z,12.20
2023-02-22T10:17:22.587Z,11.23
2023-02-22T10:20:17.448Z,11.50
2023-02-22T10:23:00.578Z,12.37
2023-02-22T10:25:34.931Z,10.77
2023-02-22T10:28:15.534Z,11.07
2023-02-22T10:31:05.978Z,11.17
2023-02-22T10:33:45.360Z,11.53
2023-02-22T10:36:22.550Z,10.53
2023-02-22T10:38:55.162Z,11.63
2023-02-22T10:41:32.652Z,10.73
2023-02-22T10:44:02.376Z,11.17
2023-02-22T10:46:30.179Z,10.47
2023-02-22T10:49:02.611Z,11.40
2023-02-22T10:51:30.424Z,11.57
2023-02-22T10:54:19.060Z,10.80
2023-02-22T10:56:53.869Z,11.00
2023-02-22T10:59:34.980Z,11.17
2023-02-22T11:02:02.773Z,10.13
2023-02-22T11:04:44.766Z,11.90
2023-02-22T11:07:32.086Z,12.23
2023-02-22T11:10:00.784Z,11.03
2023-02-22T11:12:37.494Z,11.93
2023-02-22T11:15:19.694Z,10.90
2023-02-22T11:17:47.556Z,11.90
2023-02-22T11:20:25.605Z,11.07
2023-02-22T11:22:57.805Z,11.40
2023-02-22T11:25:27.776Z,11.13
2023-02-22T11:27:55.855Z,11.63
2023-02-22T11:30:26.171Z,11.83
2023-02-22T11:32:59.228Z,11.53
2023-02-22T11:35:30.130Z,10.50
2023-02-22T11:38:16.253Z,11.43
2023-02-22T11:40:45.948Z,10.60
2023-02-22T11:43:17.469Z,12.10
2023-02-22T11:46:02.082Z,10.80
2023-02-22T11:48:31.017Z,11.80
2023-02-22T11:51:31.598Z,11.03
2023-02-22T11:54:28.668Z,10.97
2023-02-22T11:57:07.156Z,10.93
2023-02-22T11:59:44.768Z,10.37
2023-02-22T12:02:34.270Z,11.33
2023-02-22T12:05:13.935Z,10.50
2023-02-22T12:08:13.771Z,10.97
2023-02-22T12:10:48.104Z,10.07
2023-02-22T12:13:28.989Z,10.23
2023-02-22T12:16:02.603Z,10.23
2023-02-22T12:18:58.532Z,10.17
2023-02-22T12:21:29.837Z,9.87
2023-02-22T12:24:08.844Z,10.83
2023-02-22T12:26:38.142Z,10.03
2023-02-22T12:29:26.276Z,9.57
2023-02-22T12:32:10.703Z,10.97
2023-02-22T12:34:41.357Z,10.67
2023-02-22T12:37:17.353Z,10.20
2023-02-22T12:39:55.581Z,10.30
2023-02-22T12:42:30.810Z,10.70
2023-02-22T12:45:05.099Z,10.17
2023-02-22T12:47:40.156Z,10.63
2023-02-22T12:50:16.135Z,10.47
2023-02-22T12:52:57.723Z,10.87
2023-02-22T12:55:34.468Z,9.30
2023-02-22T12:58:11.896Z,10.87
2023-02-22T13:00:41.214Z,11.00
2023-02-22T13:03:22.441Z,10.60
2023-02-22T13:05:54.727Z,10.60
2023-02-22T13:08:36.659Z,9.30
2023-02-22T13:11:06.488Z,9.43
2023-02-22T13:13:52.539Z,9.87
2023-02-22T13:16:33.090Z,9.67
2023-02-22T13:19:05.155Z,9.20
2023-02-22T13:21:34.385Z,8.90
2023-02-22T13:24:12.529Z,9.20
2023-02-22T13:26:50.577Z,9.77
2023-02-22T13:29:28.371Z,8.93
2023-02-22T13:32:04.433Z,9.00
2023-02-22T13:34:54.228Z,9.13
2023-02-22T13:37:42.374Z,9.00
2023-02-22T13:40:20.792Z,9.47
2023-02-22T13:42:55.422Z,10.77
2023-02-22T13:45:27.698Z,9.13
2023-02-22T13:47:57.728Z,9.60
2023-02-22T13:50:32.928Z,9.63
2023-02-22T13:53:03.157Z,9.43
2023-02-22T13:55:34.533Z,9.13
2023-02-22T13:58:11.376Z,9.50
2023-02-22T14:00:44.282Z,10.87
2023-02-22T14:03:16.929Z,10.20
2023-02-22T14:05:46.228Z,10.30
2023-02-22T14:08:25.328Z,9.70
2023-02-22T14:10:56.555Z,9.67
2023-02-22T14:13:29.594Z,9.13
2023-02-22T14:16:04.507Z,9.67
2023-02-22T14:18:38.585Z,9.63
2023-02-22T14:21:12.543Z,9.00
2023-02-22T14:23:55.787Z,9.73
2023-02-22T14:26:32.449Z,9.60
2023-02-22T14:29:02.809Z,9.77
2023-02-22T14:31:38.462Z,8.93
2023-02-22T14:34:14.115Z,9.27
2023-02-22T14:36:55.465Z,8.90
2023-02-22T14:39:33.711Z,9.07
2023-02-22T14:42:07.043Z,8.37
2023-02-22T14:44:39.998Z,8.83
2023-02-22T14:47:12.788Z,9.83
2023-02-22T14:49:45.633Z,8.53
2023-02-22T14:52:21.478Z,9.40
2023-02-22T14:55:09.218Z,9.63
2023-02-22T14:57:44.891Z,9.03
2023-02-22T15:00:30.649Z,7.83
2023-02-22T15:03:01.322Z,9.93
2023-02-22T15:05:32.405Z,9.30
2023-02-22T15:08:06.779Z,8.20
2023-02-22T15:10:46.675Z,8.90
2023-02-22T15:13:20.740Z,8.80
2023-02-22T15:15:51.451Z,8.30
2023-02-22T15:18:23.408Z,9.63
2023-02-22T15:20:56.300Z,8.83
2023-02-22T15:23:33.286Z,8.47
2023-02-22T15:26:02.664Z,9.30
2023-02-22T15:28:32.420Z,9.30
2023-02-22T15:31:21.635Z,8.13
2023-02-22T15:33:53.068Z,8.40
2023-02-22T15:36:23.356Z,8.50
2023-02-22T15:38:55.706Z,8.47
2023-02-22T15:41:27.846Z,8.90
2023-02-22T15:44:22.804Z,7.83
2023-02-22T15:46:55.237Z,7.67
2023-02-22T15:49:25.800Z,8.23
2023-02-22T15:52:11.639Z,9.27
2023-02-22T15:54:43.261Z,8.07
2023-02-22T15:57:13.692Z,8.10
2023-02-22T15:59:44.951Z,8.77
2023-02-22T16:02:46.662Z,7.73
2023-02-22T16:05:18.392Z,8.13
2023-02-22T16:07:50.109Z,8.20
2023-02-22T16:10:24.718Z,9.00
2023-02-22T16:13:03.953Z,9.00
2023-02-22T16:15:36.757Z,8.40
2023-02-22T16:18:22.877Z,9.43
2023-02-22T16:21:00.731Z,8.30
2023-02-22T16:23:28.385Z,8.77
2023-02-22T16:26:05.293Z,8.10
2023-02-22T16:28:36.121Z,9.50
2023-02-22T16:31:05.792Z,9.20
2023-02-22T16:33:33.918Z,7.37
2023-02-22T16:36:08.123Z,9.77
2023-02-22T16:38:38.331Z,7.53
2023-02-22T16:41:13.296Z,8.20
2023-02-22T16:43:42.844Z,10.53
2023-02-22T16:46:09.970Z,7.13
2023-02-22T16:48:38.147Z,8.07
2023-02-22T16:51:14.797Z,9.43
2023-02-22T16:53:42.010Z,10.37
2023-02-22T16:56:10.350Z,8.90
2023-02-22T16:58:41.764Z,8.30
2023-02-22T17:01:09.492Z,8.13
2023-02-22T17:03:36.897Z,8.87
2023-02-22T17:06:06.431Z,8.53
2023-02-22T17:08:33.510Z,8.83
2023-02-22T17:11:00.843Z,9.20
2023-02-22T17:13:30.869Z,8.97
2023-02-22T17:15:58.525Z,10.00
2023-02-22T17:18:33.856Z,9.07
2023-02-22T17:21:04.108Z,9.73
2023-02-22T17:23:33.495Z,11.17
2023-02-22T17:26:04.660Z,11.30
2023-02-22T17:28:32.223Z,10.83
2023-02-22T17:31:02.879Z,11.63
2023-02-22T17:33:31.199Z,9.67
2023-02-22T17:35:59.185Z,11.93
2023-02-22T17:38:30.140Z,9.83
2023-02-22T17:40:58.215Z,9.87
2023-02-22T17:43:27.729Z,11.17
2023-02-22T17:45:57.493Z,9.57
2023-02-22T17:48:24.985Z,11.07
2023-02-22T17:50:54.759Z,9.70
2023-02-22T17:53:25.428Z,9.80
2023-02-22T17:55:52.656Z,10.67
2023-02-22T17:58:19.774Z,9.67
2023-02-22T18:00:50.395Z,11.00
2023-02-22T18:03:25.180Z,10.00
2023-02-22T18:05:57.559Z,9.53
2023-02-22T18:08:25.464Z,9.57
2023-02-22T18:10:56.299Z,9.67
2023-02-22T18:13:26.855Z,8.63
2023-02-22T18:15:59.726Z,8.97
2023-02-22T18:18:27.350Z,10.10
2023-02-22T18:20:59.727Z,9.00
2023-02-22T18:23:28.135Z,9.30
2023-02-22T18:26:10.153Z,10.10
2023-02-22T18:28:38.195Z,8.70
2023-02-22T18:31:09.649Z,9.33
2023-02-22T18:33:39.165Z,9.30
2023-02-22T18:36:06.546Z,9.40
2023-02-22T18:38:33.639Z,8.83
2023-02-22T18:41:00.768Z,8.53
2023-02-22T18:43:31.840Z,9.37
2023-02-22T18:46:09.236Z,9.83
2023-02-22T18:48:37.078Z,10.73
2023-02-22T18:51:05.848Z,10.47
2023-02-22T18:53:36.699Z,9.63
2023-02-22T18:56:08.527Z,10.07
2023-02-22T18:58:36.150Z,10.90
2023-02-22T19:01:04.187Z,10.00
2023-02-22T19:03:32.527Z,10.53
2023-02-22T19:06:08.570Z,11.93
2023-02-22T19:08:39.466Z,10.87
2023-02-22T19:11:08.620Z,11.13
2023-02-22T19:13:35.862Z,11.80
2023-02-22T19:16:03.424Z,11.57
2023-02-22T19:18:30.838Z,10.90
2023-02-22T19:21:04.330Z,12.03
2023-02-22T19:23:34.456Z,12.77
2023-02-22T19:26:03.100Z,12.93
2023-02-22T19:28:34.058Z,14.17
2023-02-22T19:31:14.605Z,13.13
2023-02-22T19:33:42.256Z,12.40
2023-02-22T19:36:12.563Z,13.27
2023-02-22T19:38:39.954Z,14.53
2023-02-22T19:41:10.134Z,14.87
2023-02-22T19:43:37.700Z,17.17
2023-02-22T19:46:08.450Z,18.97
2023-02-22T19:48:35.896Z,20.10
2023-02-22T19:51:06.824Z,19.13
2023-02-22T19:53:34.391Z,20.83
2023-02-22T19:56:05.862Z,20.37
2023-02-22T19:58:36.633Z,21.77
2023-02-22T20:01:13.634Z,21.00
2023-02-22T20:03:42.352Z,19.57
2023-02-22T20:06:16.540Z,19.57
2023-02-22T20:08:43.655Z,18.63
2023-02-22T20:11:11.242Z,17.83
2023-02-22T20:13:41.779Z,19.53
2023-02-22T20:16:09.948Z,18.60
2023-02-22T20:18:39.493Z,19.13
2023-02-22T20:21:08.117Z,20.27
2023-02-22T20:23:35.295Z,20.30
2023-02-22T20:26:02.364Z,19.07
2023-02-22T20:28:29.868Z,18.40
2023-02-22T20:30:59.365Z,19.43
2023-02-22T20:33:26.547Z,19.43
2023-02-22T20:35:53.775Z,19.70
2023-02-22T20:38:20.908Z,20.83
2023-02-22T20:40:48.154Z,20.43
2023-02-22T20:43:15.249Z,21.30
2023-02-22T20:45:44.739Z,19.73
2023-02-22T20:48:12.256Z,21.00
2023-02-22T20:50:39.331Z,21.07
2023-02-22T20:53:06.409Z,20.67
2023-02-22T20:55:33.498Z,21.60
2023-02-22T20:58:00.562Z,21.00
2023-02-22T21:00:30.014Z,21.17
2023-02-22T21:02:57.073Z,21.93
2023-02-22T21:05:24.151Z,22.10
2023-02-22T21:07:51.218Z,24.53
2023-02-22T21:10:21.054Z,23.67
2023-02-22T21:12:48.586Z,22.50
2023-02-22T21:15:15.734Z,22.77
2023-02-22T21:17:47.525Z,24.77
2023-02-22T21:20:21.726Z,26.17
2023-02-22T21:22:50.781Z,28.80
2023-02-22T21:25:18.042Z,27.87
2023-02-22T21:27:45.222Z,28.33
2023-02-22T21:30:15.133Z,33.07
2023-02-22T21:32:42.521Z,31.23
2023-02-22T21:35:09.696Z,32.43
2023-02-22T21:37:36.803Z,30.30
2023-02-22T21:40:10.721Z,32.83
2023-02-22T21:42:38.976Z,33.40
2023-02-22T21:45:08.649Z,34.50
2023-02-22T21:47:35.808Z,32.77
2023-02-22T21:50:03.447Z,34.87
2023-02-22T21:52:30.804Z,34.30
2023-02-22T21:55:00.210Z,37.23
2023-02-22T21:57:27.281Z,37.77
2023-02-22T21:59:54.365Z,36.80
2023-02-22T22:02:22.167Z,37.77
2023-02-22T22:04:51.854Z,37.07
2023-02-22T22:07:19.009Z,37.13
2023-02-22T22:09:48.269Z,36.57
2023-02-22T22:12:15.766Z,39.23
2023-02-22T22:14:45.180Z,39.30
2023-02-22T22:17:12.388Z,38.53
2023-02-22T22:19:39.791Z,38.93
2023-02-22T22:22:07.786Z,38.73
2023-02-22T22:24:34.931Z,38.77
2023-02-22T22:27:06.436Z,39.77
2023-02-22T22:29:34.376Z,40.53
2023-02-22T22:32:01.997Z,40.60
2023-02-22T22:34:29.646Z,38.23
2023-02-22T22:37:00.659Z,38.63
2023-02-22T22:39:27.842Z,42.77
2023-02-22T22:41:55.307Z,37.00
2023-02-22T22:44:28.711Z,37.53
2023-02-22T22:46:55.816Z,39.37
2023-02-22T22:49:25.332Z,41.47
2023-02-22T22:51:53.503Z,41.90
2023-02-22T22:54:20.767Z,41.33
2023-02-22T22:56:48.124Z,42.33
2023-02-22T22:59:15.282Z,39.47
2023-02-22T23:01:45.533Z,43.73
2023-02-22T23:04:16.632Z,42.90
2023-02-22T23:06:49.806Z,42.23
2023-02-22T23:09:24.336Z,41.50
2023-02-22T23:11:53.436Z,41.90
2023-02-22T23:14:22.546Z,41.93
2023-02-22T23:16:50.366Z,42.00
2023-02-22T23:19:19.169Z,42.10
2023-02-22T23:21:52.788Z,42.27
2023-02-22T23:24:21.164Z,43.57
2023-02-22T23:26:48.736Z,43.00
2023-02-22T23:29:17.051Z,43.43
2023-02-22T23:31:44.247Z,43.53
2023-02-22T23:34:11.386Z,44.77
2023-02-22T23:36:39.326Z,44.93
2023-02-22T23:39:07.327Z,43.47
2023-02-22T23:41:36.402Z,44.10
2023-02-22T23:44:08.536Z,44.30
2023-02-22T23:46:36.506Z,43.57
2023-02-22T23:49:05.596Z,43.37
2023-02-22T23:51:39.361Z,44.50
2023-02-22T23:54:08.998Z,45.63
2023-02-22T23:56:37.676Z,46.53
2023-02-22T23:59:12.410Z,44.10
